Time;durP1;ratioP1;P1;durP2;ratioP2;P2;SDS_P1;SDS_P2;PMS_P1;PMS_P2;Temp;Humidity;BMP_temperature;BMP_pressure;BME280_temperature;BME280_humidity;BME280_pressure;Samples;Min_cycle;Max_cycle;Signal;HPM_P1;HPM_P2
2023/02/13 00:00:09;;;;;;;30.50;27.20;;;10.60;99.90;;;;;;2089327;28;20489;-71
2023/02/13 00:01:10;;;;;;;32.47;25.85;;;10.60;99.90;;;;;;2089290;28;20047;-71
2023/02/13 00:02:10;;;;;;;32.35;25.70;;;10.60;99.90;;;;;;2088539;28;20025;-71
2023/02/13 00:03:11;;;;;;;29.40;25.58;;;10.60;99.90;;;;;;2090491;28;20031;-71
2023/02/13 00:04:11;;;;;;;29.70;25.88;;;10.60;99.90;;;;;;2089582;28;20032;-71
2023/02/13 00:05:12;;;;;;;31.83;25.45;;;10.60;99.90;;;;;;2087733;28;20032;-71
2023/02/13 00:06:12;;;;;;;28.30;24.60;;;10.60;99.90;;;;;;2090007;28;20078;-71
2023/02/13 00:07:13;;;;;;;29.70;24.60;;;10.60;99.90;;;;;;2090009;28;21270;-71
2023/02/13 00:08:13;;;;;;;29.50;26.27;;;10.60;99.90;;;;;;2092364;28;20108;-71
2023/02/13 00:09:14;;;;;;;29.58;25.20;;;10.60;99.90;;;;;;2089849;28;20485;-71
2023/02/13 00:10:15;;;;;;;28.63;25.42;;;10.60;99.90;;;;;;2087576;28;20056;-71
2023/02/13 00:11:15;;;;;;;28.52;25.00;;;10.60;99.90;;;;;;2090521;28;20664;-71
2023/02/13 00:12:16;;;;;;;28.70;25.15;;;10.60;99.90;;;;;;2089892;28;20028;-71
2023/02/13 00:13:16;;;;;;;29.73;25.10;;;10.60;99.90;;;;;;2092177;28;20027;-71
2023/02/13 00:14:17;;;;;;;29.15;24.88;;;10.60;99.90;;;;;;2095155;28;20496;-71
2023/02/13 00:15:17;;;;;;;28.73;25.42;;;10.50;99.90;;;;;;2092525;28;20025;-71
2023/02/13 00:16:18;;;;;;;29.27;25.20;;;10.60;99.90;;;;;;2090235;28;20025;-71
2023/02/13 00:17:19;;;;;;;29.75;25.33;;;10.50;99.90;;;;;;2089291;28;20077;-71
2023/02/13 00:18:19;;;;;;;28.88;24.65;;;10.50;99.90;;;;;;2091160;28;20124;-71
2023/02/13 00:19:20;;;;;;;30.92;25.63;;;10.50;99.90;;;;;;2090211;28;20114;-71
2023/02/13 00:20:20;;;;;;;30.05;25.08;;;10.50;99.90;;;;;;2089279;28;20036;-71
2023/02/13 00:21:21;;;;;;;28.75;25.48;;;10.50;99.90;;;;;;2092717;28;21710;-71
2023/02/13 00:22:21;;;;;;;30.92;25.80;;;10.50;99.90;;;;;;2091383;28;20021;-72
2023/02/13 00:23:22;;;;;;;29.52;26.30;;;10.50;99.90;;;;;;2090347;28;20054;-71
2023/02/13 00:24:22;;;;;;;29.50;26.20;;;10.50;99.90;;;;;;2089657;28;20167;-71
2023/02/13 00:25:23;;;;;;;32.05;26.92;;;10.50;99.90;;;;;;2088865;28;20020;-71
2023/02/13 00:26:23;;;;;;;29.67;25.42;;;10.50;99.90;;;;;;2088025;28;20032;-71
2023/02/13 00:27:24;;;;;;;30.95;25.42;;;10.50;99.90;;;;;;2091997;28;20028;-71
2023/02/13 00:28:25;;;;;;;38.42;25.83;;;10.50;99.90;;;;;;2090420;28;20021;-71
2023/02/13 00:29:25;;;;;;;31.38;26.88;;;10.50;99.90;;;;;;2088881;28;20135;-71
2023/02/13 00:30:26;;;;;;;30.13;25.38;;;10.50;99.90;;;;;;2089919;28;20040;-71
2023/02/13 00:31:26;;;;;;;31.60;25.33;;;10.50;99.90;;;;;;2089690;28;20071;-71
2023/02/13 00:32:27;;;;;;;30.88;26.27;;;10.50;99.90;;;;;;2093594;28;20028;-71
2023/02/13 00:33:27;;;;;;;28.77;25.02;;;10.50;99.90;;;;;;2091978;28;20036;-71
2023/02/13 00:34:28;;;;;;;28.92;25.75;;;10.50;99.90;;;;;;2089673;28;20032;-71
2023/02/13 00:35:28;;;;;;;27.23;24.00;;;10.50;99.90;;;;;;2090508;28;20520;-71
2023/02/13 00:36:29;;;;;;;29.05;25.48;;;10.40;99.90;;;;;;2090341;28;20562;-72
2023/02/13 00:37:30;;;;;;;29.83;24.63;;;10.50;99.90;;;;;;2085604;28;20020;-72
2023/02/13 00:38:30;;;;;;;30.48;25.30;;;10.40;99.90;;;;;;2090504;28;20028;-71
2023/02/13 00:39:31;;;;;;;29.70;24.40;;;10.50;99.90;;;;;;2089390;28;20052;-71
2023/02/13 00:40:31;;;;;;;29.63;24.92;;;10.50;99.90;;;;;;2087761;28;20029;-71
2023/02/13 00:41:32;;;;;;;28.30;25.20;;;10.40;99.90;;;;;;2092747;28;20017;-71
2023/02/13 00:42:32;;;;;;;28.30;25.25;;;10.40;99.90;;;;;;2093134;28;20060;-71
2023/02/13 00:43:33;;;;;;;32.72;25.33;;;10.40;99.90;;;;;;2092452;28;20567;-71
2023/02/13 00:44:34;;;;;;;29.73;25.88;;;10.40;99.90;;;;;;2092357;28;20489;-71
2023/02/13 00:45:34;;;;;;;28.27;24.42;;;10.40;99.90;;;;;;2089164;28;20075;-71
2023/02/13 00:46:35;;;;;;;27.23;24.30;;;10.40;99.90;;;;;;2092667;28;20029;-71
2023/02/13 00:47:36;;;;;;;28.23;25.30;;;10.40;99.90;;;;;;2090330;28;20847;-71
2023/02/13 00:48:37;;;;;;;27.92;24.45;;;10.40;99.90;;;;;;2090002;28;21700;-71
2023/02/13 00:49:37;;;;;;;30.40;25.20;;;10.40;99.90;;;;;;2089831;28;20087;-71
2023/02/13 00:50:38;;;;;;;30.08;25.08;;;10.40;99.90;;;;;;2091657;28;20057;-71
2023/02/13 00:51:38;;;;;;;30.90;25.55;;;10.40;99.90;;;;;;2090851;28;20111;-71
2023/02/13 00:52:39;;;;;;;27.95;24.88;;;10.40;99.90;;;;;;2091055;28;20029;-71
2023/02/13 00:53:39;;;;;;;31.02;25.85;;;10.40;99.90;;;;;;2092127;28;20035;-71
2023/02/13 00:54:40;;;;;;;33.83;26.83;;;10.40;99.90;;;;;;2084956;28;20064;-71
2023/02/13 00:55:41;;;;;;;31.27;25.60;;;10.40;99.90;;;;;;2089311;28;20687;-71
2023/02/13 00:56:42;;;;;;;31.75;25.33;;;10.40;99.90;;;;;;2093890;28;20488;-71
2023/02/13 00:57:42;;;;;;;31.27;25.25;;;10.40;99.90;;;;;;2087296;28;20381;-71
2023/02/13 00:58:43;;;;;;;30.58;24.85;;;10.40;99.90;;;;;;2089929;28;20396;-71
2023/02/13 00:59:44;;;;;;;28.42;24.77;;;10.40;99.90;;;;;;2089445;28;20047;-71
2023/02/13 01:00:48;;;;;;;29.98;25.10;;;10.40;99.90;;;;;;2090370;28;20024;-71
2023/02/13 01:01:48;;;;;;;31.65;25.75;;;10.50;99.90;;;;;;2090606;28;20420;-71
2023/02/13 01:02:49;;;;;;;30.00;24.42;;;10.50;99.90;;;;;;2088638;28;20090;-71
2023/02/13 01:03:50;;;;;;;30.15;25.10;;;10.40;99.90;;;;;;2079219;28;20067;-71
2023/02/13 01:04:50;;;;;;;29.67;24.52;;;10.40;99.90;;;;;;2090247;28;20159;-71
2023/02/13 01:05:51;;;;;;;29.40;25.08;;;10.50;99.90;;;;;;2090112;28;20534;-71
2023/02/13 01:06:52;;;;;;;30.27;25.48;;;10.50;99.90;;;;;;2086480;28;20560;-71
2023/02/13 01:07:52;;;;;;;27.73;24.77;;;10.50;99.90;;;;;;2090217;28;20428;-71
2023/02/13 01:08:53;;;;;;;28.58;25.27;;;10.50;99.90;;;;;;2089838;28;20500;-72
2023/02/13 01:09:53;;;;;;;28.88;24.85;;;10.50;99.90;;;;;;2090514;28;20033;-71
2023/02/13 01:10:54;;;;;;;26.65;23.85;;;10.50;99.90;;;;;;2089919;28;20404;-72
2023/02/13 01:11:55;;;;;;;28.02;23.90;;;10.50;99.90;;;;;;2088055;28;21741;-71
2023/02/13 01:12:55;;;;;;;26.15;23.35;;;10.50;99.90;;;;;;2090036;28;20117;-71
2023/02/13 01:13:56;;;;;;;29.67;25.08;;;10.50;99.90;;;;;;2089789;28;20106;-71
2023/02/13 01:14:56;;;;;;;27.05;23.02;;;10.50;99.90;;;;;;2082936;28;20079;-71
2023/02/13 01:15:57;;;;;;;28.98;24.35;;;10.50;99.90;;;;;;2091256;28;20171;-71
2023/02/13 01:16:57;;;;;;;28.95;24.30;;;10.50;99.90;;;;;;2090467;28;20036;-71
2023/02/13 01:17:59;;;;;;;29.55;25.00;;;10.50;99.90;;;;;;2089381;28;20032;-71
2023/02/13 01:19:00;;;;;;;28.23;23.50;;;10.50;99.90;;;;;;2091975;28;20597;-71
2023/02/13 01:20:00;;;;;;;28.83;24.85;;;10.50;99.90;;;;;;2089900;28;20456;-71
2023/02/13 01:21:04;;;;;;;29.10;25.85;;;10.50;99.90;;;;;;2086368;28;20020;-72
2023/02/13 01:22:07;;;;;;;29.15;24.50;;;10.50;99.90;;;;;;2092240;28;20119;-71
2023/02/13 01:23:08;;;;;;;29.25;25.08;;;10.50;99.90;;;;;;2089173;28;20736;-71
2023/02/13 01:24:09;;;;;;;28.42;23.60;;;10.50;99.90;;;;;;2089487;28;20110;-71
2023/02/13 01:25:09;;;;;;;32.38;26.63;;;10.50;99.90;;;;;;2088938;28;20106;-71
2023/02/13 01:26:16;;;;;;;26.88;24.00;;;10.50;99.90;;;;;;2091147;28;20136;-71
2023/02/13 01:27:16;;;;;;;29.50;25.10;;;10.50;99.90;;;;;;2090911;28;20025;-71
2023/02/13 01:28:17;;;;;;;28.23;24.90;;;10.50;99.90;;;;;;2090323;28;20048;-71
2023/02/13 01:29:17;;;;;;;31.95;25.80;;;10.50;99.90;;;;;;2091037;28;20020;-71
2023/02/13 01:30:18;;;;;;;31.67;25.58;;;10.50;99.90;;;;;;2090559;28;20083;-71
2023/02/13 01:31:19;;;;;;;28.77;24.00;;;10.50;99.90;;;;;;2089825;28;20059;-71
2023/02/13 01:32:20;;;;;;;30.50;25.13;;;10.50;99.90;;;;;;2089505;28;20040;-71
2023/02/13 01:33:22;;;;;;;31.15;24.08;;;10.50;99.90;;;;;;2091479;28;20028;-71
2023/02/13 01:34:22;;;;;;;31.42;23.73;;;10.50;99.90;;;;;;2089080;28;20033;-71
2023/02/13 01:35:23;;;;;;;29.30;24.55;;;10.50;99.90;;;;;;2092868;28;20037;-72
2023/02/13 01:36:24;;;;;;;31.40;23.95;;;10.50;99.90;;;;;;2089520;28;20525;-71
2023/02/13 01:37:25;;;;;;;27.20;22.20;;;10.50;99.90;;;;;;2087481;28;20033;-72
2023/02/13 01:38:25;;;;;;;27.00;23.05;;;10.50;99.90;;;;;;2088462;28;20056;-71
2023/02/13 01:39:26;;;;;;;27.63;23.63;;;10.50;99.90;;;;;;2090467;28;20029;-71
2023/02/13 01:40:28;;;;;;;28.75;24.25;;;10.50;99.90;;;;;;2090979;28;20484;-71
2023/02/13 01:41:29;;;;;;;29.20;23.52;;;10.50;99.90;;;;;;2089670;28;20074;-71
2023/02/13 01:42:32;;;;;;;27.13;22.98;;;10.50;99.90;;;;;;2091173;28;20047;-71
2023/02/13 01:44:02;;;;;;;28.10;22.40;;;10.50;99.90;;;;;;2087949;28;20032;-71
2023/02/13 01:45:23;;;;;;;27.70;22.20;;;10.40;99.90;;;;;;2083436;28;20033;-72
2023/02/13 01:46:31;;;;;;;26.10;22.25;;;10.50;99.90;;;;;;2091326;28;20036;-71
2023/02/13 01:47:46;;;;;;;26.27;22.00;;;10.40;99.90;;;;;;2091743;28;20047;-71
2023/02/13 01:48:50;;;;;;;27.65;22.27;;;10.40;99.90;;;;;;2090459;28;20383;-71
2023/02/13 01:49:59;;;;;;;25.00;22.33;;;10.40;99.90;;;;;;2092383;28;20041;-72
2023/02/13 01:51:05;;;;;;;24.83;22.17;;;10.40;99.90;;;;;;2091661;28;20024;-71
2023/02/13 01:52:08;;;;;;;27.65;23.45;;;10.40;99.90;;;;;;2090486;28;20560;-71
2023/02/13 01:53:16;;;;;;;27.75;23.42;;;10.40;99.90;;;;;;2091541;28;20029;-71
2023/02/13 01:54:29;;;;;;;29.27;23.27;;;10.40;99.90;;;;;;2095287;28;20036;-71
2023/02/13 01:55:32;;;;;;;26.88;22.65;;;10.40;99.90;;;;;;2094512;28;20060;-71
2023/02/13 01:56:37;;;;;;;27.08;23.10;;;10.30;99.90;;;;;;2089974;28;20512;-71
2023/02/13 01:57:41;;;;;;;26.17;22.55;;;10.30;99.90;;;;;;2094551;28;20024;-71
2023/02/13 01:58:44;;;;;;;22.40;20.05;;;10.40;99.90;;;;;;2090817;28;20038;-71
2023/02/13 01:59:59;;;;;;;20.83;17.83;;;10.30;99.90;;;;;;2092334;28;20028;-71
2023/02/13 02:01:01;;;;;;;21.50;17.35;;;10.40;99.90;;;;;;2090053;28;20056;-71
2023/02/13 02:02:02;;;;;;;19.23;17.20;;;10.30;99.90;;;;;;2092267;28;20024;-71
2023/02/13 02:03:12;;;;;;;20.92;17.33;;;10.30;99.90;;;;;;2088358;28;20053;-71
2023/02/13 02:04:21;;;;;;;;;;;10.30;99.90;;;;;;2092384;28;20461;-71
2023/02/13 02:05:25;;;;;;;17.58;14.63;;;10.20;99.90;;;;;;2091053;28;19958;-71
2023/02/13 02:06:34;;;;;;;14.70;13.18;;;10.20;99.90;;;;;;2090614;28;20040;-71
2023/02/13 02:07:37;;;;;;;16.20;13.05;;;10.20;99.90;;;;;;2092719;28;20044;-71
2023/02/13 02:08:38;;;;;;;15.60;14.00;;;10.20;99.90;;;;;;2090802;28;20157;-71
2023/02/13 02:09:41;;;;;;;16.70;14.35;;;10.20;99.90;;;;;;2087943;28;20070;-71
2023/02/13 02:10:42;;;;;;;16.80;13.98;;;10.20;99.90;;;;;;2094037;28;20629;-71
2023/02/13 02:12:05;;;;;;;14.98;13.23;;;10.20;99.90;;;;;;2092546;28;20025;-71
2023/02/13 02:13:13;;;;;;;16.27;13.77;;;10.20;99.90;;;;;;2091389;28;20016;-71
2023/02/13 02:14:13;;;;;;;15.05;13.20;;;10.20;99.90;;;;;;2093263;28;20137;-71
2023/02/13 02:15:15;;;;;;;15.00;12.68;;;10.20;99.90;;;;;;2091144;28;20028;-71
2023/02/13 02:16:15;;;;;;;14.15;12.13;;;10.20;99.90;;;;;;2089902;28;20029;-71
2023/02/13 02:17:16;;;;;;;14.77;11.95;;;10.20;99.90;;;;;;2092569;28;20599;-71
2023/02/13 02:18:19;;;;;;;14.20;12.68;;;10.20;99.90;;;;;;2091352;28;20366;-71
2023/02/13 02:20:10;;;;;;;11.75;10.55;;;10.20;99.90;;;;;;2088900;28;20036;-71
2023/02/13 02:21:50;;;;;;;12.45;11.02;;;10.20;99.90;;;;;;2083633;28;20033;-71
2023/02/13 02:23:02;;;;;;;11.13;9.30;;;10.10;99.90;;;;;;2091335;28;20102;-71
2023/02/13 02:24:23;;;;;;;12.85;10.00;;;10.10;99.90;;;;;;2091490;28;20542;-71
2023/02/13 02:25:38;;;;;;;11.57;9.45;;;10.10;99.90;;;;;;2090881;28;20025;-71
2023/02/13 02:26:54;;;;;;;9.98;8.98;;;10.10;99.90;;;;;;2092104;28;20081;-71
2023/02/13 02:28:19;;;;;;;13.05;9.32;;;10.10;99.90;;;;;;2088904;28;20056;-71
2023/02/13 02:29:34;;;;;;;11.10;9.00;;;10.10;99.90;;;;;;2091141;28;20059;-71
2023/02/13 02:31:11;;;;;;;10.93;9.30;;;10.10;99.90;;;;;;2090710;28;20043;-71
2023/02/13 02:32:31;;;;;;;9.60;8.60;;;10.20;99.90;;;;;;2092499;28;20919;-71
2023/02/13 02:33:37;;;;;;;12.35;9.38;;;10.20;99.90;;;;;;2091365;28;20033;-71
2023/02/13 02:34:56;;;;;;;10.05;8.77;;;10.20;99.90;;;;;;2090685;28;20040;-71
2023/02/13 02:36:32;;;;;;;10.65;9.10;;;10.20;99.90;;;;;;2092548;28;20036;-71
2023/02/13 02:37:52;;;;;;;10.15;8.98;;;10.20;99.90;;;;;;2085759;28;20513;-71
2023/02/13 02:39:08;;;;;;;11.00;9.43;;;10.20;99.90;;;;;;2091572;28;20382;-71
2023/02/13 02:40:14;;;;;;;9.35;8.35;;;10.10;99.90;;;;;;2090868;28;20198;-71
2023/02/13 02:42:02;;;;;;;10.27;8.98;;;10.20;99.90;;;;;;2091738;28;20101;-71
2023/02/13 02:43:24;;;;;;;9.80;8.77;;;10.20;99.90;;;;;;2090133;28;20834;-71
2023/02/13 02:44:57;;;;;;;9.32;8.43;;;10.10;99.90;;;;;;2089584;28;20029;-71
2023/02/13 02:46:20;;;;;;;10.55;8.90;;;10.10;99.90;;;;;;2085316;28;20132;-71
2023/02/13 02:50:33;;;;;;;8.65;7.85;;;10.10;99.90;;;;;;2091194;28;20029;-70
2023/02/13 02:51:54;;;;;;;10.18;8.30;;;10.10;99.90;;;;;;2091086;28;20025;-71
2023/02/13 02:53:00;;;;;;;9.20;7.88;;;10.10;99.90;;;;;;2090707;28;20099;-71
2023/02/13 02:56:01;;;;;;;8.88;7.63;;;10.10;99.90;;;;;;2091333;28;20029;-71
2023/02/13 02:57:20;;;;;;;7.97;7.15;;;10.10;99.90;;;;;;2091850;28;20031;-70
2023/02/13 03:07:02;;;;;;;8.15;6.78;;;10.10;99.90;;;;;;2092856;28;20024;-71
2023/02/13 03:08:04;;;;;;;9.27;6.90;;;10.10;99.90;;;;;;2091655;28;20029;-70
2023/02/13 03:13:29;;;;;;;7.78;6.97;;;10.10;99.90;;;;;;2089390;28;20037;-71
2023/02/13 03:14:29;;;;;;;9.75;7.13;;;10.00;99.90;;;;;;2092004;28;20040;-71
2023/02/13 03:15:31;;;;;;;7.65;6.60;;;10.10;99.90;;;;;;2090674;28;20137;-71
2023/02/13 03:22:17;;;;;;;8.07;6.72;;;10.00;99.90;;;;;;2093133;28;20031;-70
2023/02/13 03:23:03;;;;;;;7.32;6.60;;;10.00;99.90;;;;;;2090611;28;20520;-70
2023/02/13 03:24:13;;;;;;;7.18;6.47;;;10.00;99.90;;;;;;2090523;28;20029;-70
2023/02/13 03:25:29;;;;;;;7.80;6.20;;;10.00;99.90;;;;;;2090751;28;20105;-71
2023/02/13 03:26:49;;;;;;;7.28;6.40;;;10.00;99.90;;;;;;2091193;28;20801;-71
2023/02/13 03:31:24;;;;;;;6.75;5.97;;;10.00;99.90;;;;;;2090290;28;20040;-71
2023/02/13 03:33:18;;;;;;;7.88;6.10;;;10.00;99.90;;;;;;2089647;28;20389;-71
2023/02/13 03:34:24;;;;;;;7.03;6.28;;;10.00;99.90;;;;;;2066446;28;20482;-71
2023/02/13 03:38:46;;;;;;;6.88;6.18;;;10.00;99.90;;;;;;2075321;28;20037;-71
2023/02/13 03:39:59;;;;;;;6.45;5.85;;;9.90;99.90;;;;;;2079571;28;20099;-71
2023/02/13 03:41:17;;;;;;;7.55;5.70;;;9.90;99.90;;;;;;2090821;28;20031;-70
2023/02/13 03:42:43;;;;;;;6.70;6.05;;;9.90;99.90;;;;;;2091592;28;20029;-71
2023/02/13 03:43:50;;;;;;;6.68;5.40;;;9.90;99.90;;;;;;2090930;28;20028;-71
2023/02/13 03:46:16;;;;;;;6.38;5.72;;;9.90;99.90;;;;;;2090670;28;20037;-70
2023/02/13 03:47:17;;;;;;;6.75;6.07;;;9.90;99.90;;;;;;2090333;28;20682;-71
2023/02/13 03:50:07;;;;;;;6.93;6.22;;;9.90;99.90;;;;;;2081385;28;20128;-71
2023/02/13 03:51:11;;;;;;;7.15;6.22;;;9.90;99.90;;;;;;2090548;28;20036;-71
2023/02/13 03:52:39;;;;;;;7.15;6.18;;;9.90;99.90;;;;;;2091104;28;20737;-71
2023/02/13 03:53:41;;;;;;;6.53;5.45;;;9.90;99.90;;;;;;2091795;28;20032;-71
2023/02/13 03:59:16;;;;;;;6.50;5.78;;;9.80;99.90;;;;;;2091148;28;20028;-71
2023/02/13 04:00:18;;;;;;;8.00;6.10;;;9.80;99.90;;;;;;2088050;28;20043;-70
2023/02/13 04:01:23;;;;;;;6.63;5.95;;;9.80;99.90;;;;;;2091235;28;20036;-70
2023/02/13 04:02:31;;;;;;;7.82;6.15;;;9.90;99.90;;;;;;2089310;28;20029;-70
2023/02/13 04:03:51;;;;;;;6.93;5.88;;;9.90;99.90;;;;;;2090460;28;20036;-71
2023/02/13 04:05:12;;;;;;;6.47;5.70;;;9.90;99.90;;;;;;2090556;28;20032;-70
2023/02/13 04:06:20;;;;;;;7.20;5.80;;;9.90;99.90;;;;;;2086716;28;20083;-71
2023/02/13 04:07:29;;;;;;;6.20;5.50;;;9.90;99.90;;;;;;2091483;28;20558;-71
2023/02/13 04:08:30;;;;;;;6.30;5.50;;;9.80;99.90;;;;;;2091729;28;20544;-71
2023/02/13 04:09:33;;;;;;;6.18;5.57;;;9.80;99.90;;;;;;2089229;28;20683;-71
2023/02/13 04:10:41;;;;;;;5.45;4.80;;;9.80;99.90;;;;;;2089856;28;20034;-71
2023/02/13 04:12:12;;;;;;;6.47;5.80;;;9.80;99.90;;;;;;2090680;28;20024;-70
2023/02/13 04:13:33;;;;;;;6.03;5.22;;;9.80;99.90;;;;;;2078373;28;20501;-71
2023/02/13 04:14:47;;;;;;;6.57;5.65;;;9.70;99.90;;;;;;2090612;28;20469;-70
2023/02/13 04:16:05;;;;;;;6.05;5.45;;;9.70;99.90;;;;;;2089525;28;20416;-70
2023/02/13 04:17:11;;;;;;;5.72;5.20;;;9.70;99.90;;;;;;2090018;28;20025;-71
2023/02/13 04:18:22;;;;;;;6.13;5.32;;;9.70;99.90;;;;;;2089339;28;20132;-71
2023/02/13 04:19:25;;;;;;;6.68;5.05;;;9.70;99.90;;;;;;2087639;28;20452;-71
2023/02/13 04:20:27;;;;;;;6.45;5.40;;;9.70;99.90;;;;;;2090012;28;20028;-70
2023/02/13 04:21:32;;;;;;;6.40;5.80;;;9.70;99.90;;;;;;2089577;28;20040;-71
2023/02/13 04:22:32;;;;;;;6.57;5.47;;;9.70;99.90;;;;;;2091289;28;20027;-71
2023/02/13 04:23:33;;;;;;;6.03;5.43;;;9.70;99.90;;;;;;2091019;28;20029;-71
2023/02/13 04:24:34;;;;;;;6.28;5.35;;;9.70;99.90;;;;;;2089499;28;20025;-71
2023/02/13 04:25:37;;;;;;;5.90;5.40;;;9.70;99.90;;;;;;2092201;28;20109;-71
2023/02/13 04:26:45;;;;;;;6.03;5.40;;;9.70;99.90;;;;;;2090752;28;20057;-71
2023/02/13 04:27:46;;;;;;;5.15;4.65;;;9.70;99.90;;;;;;2089728;28;20024;-71
2023/02/13 04:28:46;;;;;;;5.53;5.00;;;9.70;99.90;;;;;;2092328;28;20060;-71
2023/02/13 04:29:47;;;;;;;5.30;4.80;;;9.70;99.90;;;;;;2090266;28;20036;-70
2023/02/13 04:30:48;;;;;;;5.82;5.20;;;9.70;99.90;;;;;;2087505;28;20370;-71
2023/02/13 04:31:49;;;;;;;5.75;5.20;;;9.70;99.90;;;;;;2090103;28;20023;-70
2023/02/13 04:32:51;;;;;;;5.47;4.97;;;9.70;99.90;;;;;;2089380;28;20193;-70
2023/02/13 04:33:52;;;;;;;6.07;5.20;;;9.70;99.90;;;;;;2092333;28;20021;-71
2023/02/13 04:34:52;;;;;;;5.28;4.78;;;9.70;99.90;;;;;;2088813;28;20036;-71
2023/02/13 04:35:53;;;;;;;5.30;4.68;;;9.70;99.90;;;;;;2090452;28;20036;-71
2023/02/13 04:36:53;;;;;;;6.22;4.93;;;9.80;99.90;;;;;;2091403;28;20496;-71
2023/02/13 04:37:54;;;;;;;5.32;4.82;;;9.70;99.90;;;;;;2088928;28;20115;-70
2023/02/13 04:38:54;;;;;;;5.82;5.18;;;9.80;99.90;;;;;;2090469;28;20024;-70
2023/02/13 04:39:55;;;;;;;5.20;4.70;;;9.80;99.90;;;;;;2087215;28;20111;-71
2023/02/13 04:40:55;;;;;;;6.13;5.53;;;9.80;99.90;;;;;;2086868;28;20079;-70
2023/02/13 04:41:56;;;;;;;5.85;5.32;;;9.80;99.90;;;;;;2089042;28;20025;-71
2023/02/13 04:42:56;;;;;;;5.55;5.03;;;9.80;99.90;;;;;;2091748;28;20024;-71
2023/02/13 04:43:57;;;;;;;6.75;5.68;;;9.80;99.90;;;;;;2091331;28;20083;-70
2023/02/13 04:44:57;;;;;;;5.55;4.95;;;9.80;99.90;;;;;;2088450;28;20032;-70
2023/02/13 04:45:58;;;;;;;6.07;5.47;;;9.80;99.90;;;;;;2092728;28;20071;-71
2023/02/13 04:46:58;;;;;;;5.78;5.18;;;9.80;99.90;;;;;;2092998;28;20056;-71
2023/02/13 04:47:59;;;;;;;5.45;4.95;;;9.80;99.90;;;;;;2089789;28;20048;-71
2023/02/13 04:48:59;;;;;;;6.93;5.00;;;9.90;99.90;;;;;;2090496;28;20131;-70
2023/02/13 04:50:00;;;;;;;6.25;5.47;;;9.90;99.90;;;;;;2091036;28;20051;-71
2023/02/13 04:51:01;;;;;;;8.40;5.53;;;9.90;99.90;;;;;;2088932;28;20035;-71
2023/02/13 04:52:01;;;;;;;5.75;5.20;;;9.90;99.90;;;;;;2087804;28;20657;-70
2023/02/13 04:53:02;;;;;;;6.40;5.72;;;9.90;99.90;;;;;;2090521;28;20103;-71
2023/02/13 04:54:02;;;;;;;6.57;5.45;;;9.90;99.90;;;;;;2089361;28;20033;-71
2023/02/13 04:55:03;;;;;;;6.50;5.57;;;9.90;99.90;;;;;;2091022;28;20396;-71
2023/02/13 04:56:04;;;;;;;6.03;5.43;;;9.90;99.90;;;;;;2091631;28;20025;-70
2023/02/13 04:57:05;;;;;;;5.90;5.05;;;9.90;99.90;;;;;;2090094;28;20500;-70
2023/02/13 04:58:05;;;;;;;5.78;5.18;;;9.90;99.90;;;;;;2091266;28;20408;-70
2023/02/13 04:59:06;;;;;;;8.13;5.30;;;9.90;99.90;;;;;;2086886;28;20038;-71
2023/02/13 05:00:07;;;;;;;7.32;5.95;;;9.80;99.90;;;;;;2090532;28;20037;-70
2023/02/13 05:01:12;;;;;;;6.63;5.88;;;9.80;99.90;;;;;;2090747;28;20039;-71
2023/02/13 05:02:12;;;;;;;7.03;6.32;;;9.80;99.90;;;;;;2092011;28;20028;-71
2023/02/13 05:03:13;;;;;;;7.05;6.35;;;9.80;99.90;;;;;;2092636;28;20017;-71
2023/02/13 05:04:15;;;;;;;7.65;6.22;;;9.80;99.90;;;;;;2089467;28;20070;-70
2023/02/13 05:05:15;;;;;;;7.53;6.13;;;9.80;99.90;;;;;;2092644;28;20044;-71
2023/02/13 05:06:16;;;;;;;6.40;5.80;;;9.80;99.90;;;;;;2091480;28;20032;-70
2023/02/13 05:07:16;;;;;;;7.55;6.82;;;9.80;99.90;;;;;;2081651;28;20409;-70
2023/02/13 05:08:17;;;;;;;7.07;6.38;;;9.80;99.90;;;;;;2089691;28;20033;-70
2023/02/13 05:09:17;;;;;;;7.53;6.30;;;9.80;99.90;;;;;;2091563;28;20117;-71
2023/02/13 05:10:18;;;;;;;6.72;6.03;;;9.80;99.90;;;;;;2089689;28;20120;-70
2023/02/13 05:11:18;;;;;;;6.85;5.80;;;9.80;99.90;;;;;;2089602;28;20036;-71
2023/02/13 05:12:19;;;;;;;7.82;6.65;;;9.70;99.90;;;;;;2091698;28;20032;-71
2023/02/13 05:13:20;;;;;;;7.43;6.10;;;9.70;99.90;;;;;;2088387;28;20110;-71
2023/02/13 05:14:21;;;;;;;8.18;6.65;;;9.70;99.90;;;;;;2088855;28;20774;-70
2023/02/13 05:15:22;;;;;;;7.30;6.60;;;9.70;99.90;;;;;;2090730;28;20036;-71
2023/02/13 05:16:22;;;;;;;7.93;6.97;;;9.80;99.90;;;;;;2088671;28;20072;-70
2023/02/13 05:17:23;;;;;;;7.60;6.85;;;9.70;99.90;;;;;;2089758;28;20021;-71
2023/02/13 05:18:23;;;;;;;7.90;6.88;;;9.70;99.90;;;;;;2090104;28;20032;-70
2023/02/13 05:19:24;;;;;;;7.75;6.80;;;9.70;99.90;;;;;;2090474;28;20028;-71
2023/02/13 05:20:25;;;;;;;7.70;6.90;;;9.70;99.90;;;;;;2093393;28;20021;-71
2023/02/13 05:24:05;;;;;;;7.93;7.13;;;9.70;99.90;;;;;;2093449;28;20480;-71
2023/02/13 05:25:06;;;;;;;7.68;6.97;;;9.70;99.90;;;;;;2093217;28;20448;-70
2023/02/13 05:26:07;;;;;;;7.60;6.80;;;9.70;99.90;;;;;;2094369;28;20029;-70
2023/02/13 05:27:07;;;;;;;10.35;6.78;;;9.70;99.90;;;;;;2092406;28;20108;-70
2023/02/13 05:29:17;;;;;;;7.88;6.47;;;9.70;99.90;;;;;;2092568;28;20400;-70
2023/02/13 05:29:28;;;;;;;;;;;9.80;99.90;;;;;;2091498;28;20029;-71
2023/02/13 05:30:29;;;;;;;9.00;6.93;;;9.70;99.90;;;;;;2091554;28;20431;-70
2023/02/13 05:31:30;;;;;;;8.32;7.13;;;9.70;99.90;;;;;;2093405;28;20599;-71
2023/02/13 05:32:30;;;;;;;7.80;7.00;;;9.70;99.90;;;;;;2091072;28;20325;-70
2023/02/13 05:33:31;;;;;;;8.02;7.22;;;9.70;99.90;;;;;;2090870;28;20098;-70
2023/02/13 05:34:31;;;;;;;9.40;8.05;;;9.70;99.90;;;;;;2091087;28;20033;-70
2023/02/13 05:35:32;;;;;;;8.43;7.38;;;9.70;99.90;;;;;;2092488;28;20039;-71
2023/02/13 05:36:32;;;;;;;9.93;8.05;;;9.70;99.90;;;;;;2092099;28;20032;-71
2023/02/13 05:37:33;;;;;;;7.95;6.88;;;9.70;99.90;;;;;;2093405;28;20036;-70
2023/02/13 05:38:33;;;;;;;8.27;6.97;;;9.70;99.90;;;;;;2093639;28;20024;-71
2023/02/13 05:39:34;;;;;;;9.10;7.85;;;9.70;99.90;;;;;;2093664;28;20107;-71
2023/02/13 05:40:35;;;;;;;10.00;7.65;;;9.70;99.90;;;;;;2093560;28;20098;-70
2023/02/13 05:41:35;;;;;;;8.20;7.40;;;9.70;99.90;;;;;;2092553;28;20078;-70
2023/02/13 05:42:36;;;;;;;9.02;7.20;;;9.70;99.90;;;;;;2092662;28;20108;-71
2023/02/13 05:43:36;;;;;;;7.40;6.35;;;9.70;99.90;;;;;;2091531;28;20750;-70
2023/02/13 05:44:37;;;;;;;8.82;7.53;;;9.70;99.90;;;;;;2092663;28;20559;-71
2023/02/13 05:45:37;;;;;;;8.38;7.38;;;9.80;99.90;;;;;;2091263;28;20028;-70
2023/02/13 05:46:39;;;;;;;8.35;7.00;;;9.80;99.90;;;;;;2092312;28;20037;-71
2023/02/13 05:47:40;;;;;;;8.13;7.32;;;9.80;99.90;;;;;;2092434;28;20017;-70
2023/02/13 05:48:40;;;;;;;9.43;8.52;;;9.80;99.90;;;;;;2093235;28;20119;-71
2023/02/13 05:49:41;;;;;;;8.27;7.38;;;9.80;99.90;;;;;;2091729;28;20515;-70
2023/02/13 05:50:41;;;;;;;8.98;7.97;;;9.80;99.90;;;;;;2093762;28;20035;-70
2023/02/13 05:51:42;;;;;;;9.63;7.93;;;9.80;99.90;;;;;;2091918;28;20091;-70
2023/02/13 05:52:43;;;;;;;9.00;8.10;;;9.70;99.90;;;;;;2093497;28;20447;-70
2023/02/13 05:53:43;;;;;;;10.10;8.57;;;9.80;99.90;;;;;;2092453;28;20040;-70
2023/02/13 05:54:44;;;;;;;8.80;7.90;;;9.80;99.90;;;;;;2091452;28;20024;-71
2023/02/13 05:55:45;;;;;;;9.18;7.90;;;9.80;99.90;;;;;;2092452;28;20028;-70
2023/02/13 05:56:46;;;;;;;9.05;8.07;;;9.80;99.90;;;;;;2093048;28;20123;-70
2023/02/13 05:57:46;;;;;;;10.07;8.57;;;9.80;99.90;;;;;;2095022;28;20025;-70
2023/02/13 05:58:50;;;;;;;9.63;8.38;;;9.80;99.90;;;;;;2091714;28;20021;-70
2023/02/13 05:59:51;;;;;;;9.95;8.57;;;9.80;99.90;;;;;;2092067;28;20504;-70
2023/02/13 06:00:58;;;;;;;10.70;8.57;;;9.80;99.90;;;;;;2093437;28;20374;-70
2023/02/13 06:01:58;;;;;;;10.27;9.20;;;9.80;99.90;;;;;;2090979;28;20415;-71
2023/02/13 06:02:59;;;;;;;10.25;9.15;;;9.80;99.90;;;;;;2090358;28;20131;-71
2023/02/13 06:03:59;;;;;;;10.32;8.98;;;9.80;99.90;;;;;;2092688;28;20077;-71
2023/02/13 06:05:00;;;;;;;10.38;9.27;;;9.80;99.90;;;;;;2092092;28;20048;-70
2023/02/13 06:06:00;;;;;;;9.52;8.52;;;9.70;99.90;;;;;;2091919;28;20029;-71
2023/02/13 06:07:01;;;;;;;10.35;9.20;;;9.80;99.90;;;;;;2090912;28;20056;-70
2023/02/13 06:08:02;;;;;;;10.63;9.18;;;9.80;99.90;;;;;;2090004;28;20033;-71
2023/02/13 06:09:03;;;;;;;9.93;8.93;;;9.80;99.90;;;;;;2091023;28;20028;-71
2023/02/13 06:10:04;;;;;;;9.88;8.82;;;9.80;99.90;;;;;;2090263;28;20496;-70
2023/02/13 06:11:05;;;;;;;10.35;8.77;;;9.80;99.90;;;;;;2090480;28;20070;-71
2023/02/13 06:12:06;;;;;;;10.30;9.02;;;9.80;99.90;;;;;;2091964;28;20032;-70
2023/02/13 06:13:06;;;;;;;11.05;9.07;;;9.80;99.90;;;;;;2092676;28;20589;-71
2023/02/13 06:14:07;;;;;;;10.60;8.88;;;9.80;99.90;;;;;;2092132;28;20035;-71